Time;durP1;ratioP1;P1;durP2;ratioP2;P2;SDS_P1;SDS_P2;PMS_P1;PMS_P2;Temp;Humidity;BMP_temperature;BMP_pressure;BME280_temperature;BME280_humidity;BME280_pressure;Samples;Min_cycle;Max_cycle;Signal;HPM_P1;HPM_P2
2022/11/21 00:00:08;;;;;;;1.63;0.70;;;;;;;7.26;80.74;98682.00;343806;28;1043;-70
2022/11/21 00:00:24;;;;;;;2.28;0.73;;;;;;;7.27;80.80;98681.13;343594;28;1042;-70
2022/11/21 00:00:36;;;;;;;1.92;0.70;;;;;;;7.28;80.15;98693.97;343723;28;1306;-70
2022/11/21 00:00:50;;;;;;;1.35;0.75;;;;;;;7.34;80.26;98680.81;343474;28;1066;-70
2022/11/21 00:01:17;;;;;;;2.60;0.80;;;;;;;7.27;79.89;98684.53;342155;28;1343;-70
2022/11/21 00:01:28;;;;;;;4.00;0.80;;;;;;;7.27;80.42;98679.38;342300;28;1094;-70
2022/11/21 00:01:40;;;;;;;2.83;0.90;;;;;;;7.31;80.25;98680.13;342149;28;1059;-70
2022/11/21 00:01:52;;;;;;;1.40;0.90;;;;;;;7.27;80.23;98686.28;342216;28;1059;-70
2022/11/21 00:02:04;;;;;;;1.40;0.80;;;;;;;7.29;79.90;98679.31;342017;28;1552;-70
2022/11/21 00:02:17;;;;;;;2.50;0.73;;;;;;;7.30;80.38;98678.41;342166;28;1065;-70
2022/11/21 00:02:29;;;;;;;2.85;0.70;;;;;;;7.22;80.28;98670.09;342221;28;1667;-70
2022/11/21 00:02:41;;;;;;;3.00;0.80;;;;;;;7.21;80.36;98674.41;343385;28;1418;-70
2022/11/21 00:02:53;;;;;;;2.28;0.75;;;;;;;7.16;80.87;98681.47;345141;28;1018;-70
2022/11/21 00:03:05;;;;;;;2.25;0.70;;;;;;;7.10;80.77;98672.22;345160;28;1050;-70
2022/11/21 00:03:18;;;;;;;2.25;0.70;;;;;;;7.11;80.90;98678.22;345079;28;1054;-70
2022/11/21 00:03:30;;;;;;;1.38;0.65;;;;;;;7.12;80.62;98683.34;342447;28;1761;-70
2022/11/21 00:03:42;;;;;;;1.33;0.70;;;;;;;7.14;80.80;98678.97;342320;28;1020;-70
2022/11/21 00:03:54;;;;;;;1.90;0.70;;;;;;;7.13;80.75;98677.25;341918;28;1953;-70
2022/11/21 00:04:06;;;;;;;1.85;0.65;;;;;;;7.19;80.79;98681.38;342367;28;1035;-70
2022/11/21 00:04:18;;;;;;;1.75;0.70;;;;;;;7.19;80.83;98686.56;342474;28;1275;-70
2022/11/21 00:04:30;;;;;;;2.00;0.70;;;;;;;7.19;80.62;98681.38;343669;28;1153;-70
2022/11/21 00:04:42;;;;;;;2.30;0.80;;;;;;;7.22;80.41;98685.59;343251;28;1613;-70
2022/11/21 00:04:53;;;;;;;1.98;0.75;;;;;;;7.28;80.23;98677.63;343461;28;1288;-70
2022/11/21 00:05:06;;;;;;;2.13;0.77;;;;;;;7.22;80.75;98681.25;343469;28;1245;-70
2022/11/21 00:05:18;;;;;;;2.05;0.70;;;;;;;7.28;80.30;98675.03;344006;28;1758;-70
2022/11/21 00:05:31;;;;;;;1.40;0.65;;;;;;;7.30;80.47;98673.25;343463;28;1160;-70
2022/11/21 00:05:45;;;;;;;1.23;0.68;;;;;;;7.32;80.17;98677.44;343582;28;1196;-70
2022/11/21 00:05:57;;;;;;;2.08;0.70;;;;;;;7.24;80.29;98678.63;342315;28;1106;-70
2022/11/21 00:06:09;;;;;;;2.47;0.60;;;;;;;7.18;80.40;98672.78;342016;28;1049;-70
2022/11/21 00:06:22;;;;;;;2.00;0.50;;;;;;;7.18;80.33;98674.50;342791;28;1285;-70
2022/11/21 00:06:34;;;;;;;2.15;0.60;;;;;;;7.13;80.31;98672.09;340512;28;5446;-70
2022/11/21 00:06:46;;;;;;;2.20;0.60;;;;;;;7.13;80.56;98679.84;342204;28;5491;-70
2022/11/21 00:06:58;;;;;;;1.58;0.60;;;;;;;7.09;80.47;98673.09;342527;28;1089;-70
2022/11/21 00:07:10;;;;;;;2.45;0.70;;;;;;;7.16;80.44;98672.00;342206;28;5495;-70
2022/11/21 00:07:22;;;;;;;2.80;0.70;;;;;;;7.17;80.34;98683.19;343170;28;1290;-70
2022/11/21 00:07:34;;;;;;;2.25;0.70;;;;;;;7.17;80.33;98670.25;343682;28;1058;-70
2022/11/21 00:07:46;;;;;;;1.95;0.63;;;;;;;7.16;80.45;98677.16;343806;28;1077;-70
2022/11/21 00:07:58;;;;;;;2.15;0.70;;;;;;;7.18;80.39;98675.38;343659;28;1081;-70
2022/11/21 00:08:12;;;;;;;2.15;0.70;;;;;;;7.10;79.92;98671.34;343805;28;1078;-70
2022/11/21 00:08:24;;;;;;;2.38;0.60;;;;;;;7.12;80.45;98672.13;343488;28;1148;-70
2022/11/21 00:08:35;;;;;;;3.83;0.80;;;;;;;7.17;80.61;98671.09;343774;28;1149;-70
2022/11/21 00:08:48;;;;;;;4.40;0.80;;;;;;;7.15;80.28;98670.28;343574;28;1025;-70
2022/11/21 00:09:00;;;;;;;3.55;0.80;;;;;;;7.19;80.38;98677.03;343513;28;1109;-70
2022/11/21 00:09:12;;;;;;;2.50;0.80;;;;;;;7.14;80.46;98678.97;343772;28;1118;-70
2022/11/21 00:09:24;;;;;;;2.95;0.80;;;;;;;7.15;80.40;98675.47;343693;28;1174;-70
2022/11/21 00:09:36;;;;;;;2.30;0.80;;;;;;;7.17;80.00;98673.66;343684;28;1823;-70
2022/11/21 00:09:48;;;;;;;1.63;0.80;;;;;;;7.11;79.76;98668.72;342605;28;1908;-70
2022/11/21 00:10:00;;;;;;;1.38;0.80;;;;;;;7.19;80.11;98671.03;342329;28;1019;-70
2022/11/21 00:10:12;;;;;;;2.05;0.70;;;;;;;7.17;79.78;98678.84;342299;28;1063;-70
2022/11/21 00:10:25;;;;;;;2.67;0.70;;;;;;;7.19;79.94;98682.22;343624;28;1590;-70
2022/11/21 00:10:38;;;;;;;3.83;0.70;;;;;;;7.28;79.52;98675.03;343418;28;1194;-70
2022/11/21 00:10:50;;;;;;;3.15;0.68;;;;;;;7.27;79.46;98669.03;343650;28;1035;-70
2022/11/21 00:11:02;;;;;;;2.95;0.77;;;;;;;7.23;79.44;98666.63;343773;28;1902;-70
2022/11/21 00:11:14;;;;;;;2.33;0.90;;;;;;;7.17;79.41;98671.09;343711;28;1038;-70
2022/11/21 00:11:26;;;;;;;2.05;0.80;;;;;;;7.18;79.53;98670.22;342495;28;1296;-70
2022/11/21 00:11:38;;;;;;;2.08;0.70;;;;;;;7.25;79.20;98670.00;342486;28;1272;-70
2022/11/21 00:11:51;;;;;;;3.25;0.70;;;;;;;7.21;79.47;98674.41;342357;28;1066;-70
2022/11/21 00:12:03;;;;;;;3.92;0.80;;;;;;;7.28;79.75;98662.13;342313;28;1366;-70
2022/11/21 00:12:15;;;;;;;3.03;0.85;;;;;;;7.28;79.61;98665.53;342486;28;1103;-70
2022/11/21 00:12:27;;;;;;;2.70;0.77;;;;;;;7.19;79.16;98669.28;342366;28;1026;-70
2022/11/21 00:12:39;;;;;;;1.88;0.70;;;;;;;7.22;79.66;98667.50;343509;28;1019;-70
2022/11/21 00:12:55;;;;;;;1.98;0.90;;;;;;;7.24;79.42;98674.28;343924;28;1051;-70
2022/11/21 00:13:15;;;;;;;1.52;0.90;;;;;;;7.24;79.53;98663.13;342769;28;1097;-70
2022/11/21 00:13:27;;;;;;;1.67;0.70;;;;;;;7.19;79.45;98665.88;342398;28;1231;-70
2022/11/21 00:13:39;;;;;;;1.45;0.70;;;;;;;7.24;79.00;98660.53;342028;28;1604;-70
2022/11/21 00:13:51;;;;;;;3.22;0.70;;;;;;;7.29;79.44;98666.41;342662;28;1604;-70
2022/11/21 00:14:03;;;;;;;3.55;0.80;;;;;;;7.24;79.10;98670.88;343760;28;1086;-70
2022/11/21 00:14:15;;;;;;;1.50;0.70;;;;;;;7.25;79.50;98664.81;343729;28;1099;-70
2022/11/21 00:14:27;;;;;;;1.63;0.73;;;;;;;7.26;78.93;98676.84;342285;28;1236;-70
2022/11/21 00:14:39;;;;;;;1.30;0.70;;;;;;;7.30;78.95;98652.56;342981;28;1171;-70
2022/11/21 00:14:52;;;;;;;1.08;0.60;;;;;;;7.26;79.15;98667.34;343657;28;1182;-70
2022/11/21 00:15:05;;;;;;;1.08;0.60;;;;;;;7.25;78.86;98665.66;343560;28;1057;-70
2022/11/21 00:15:17;;;;;;;1.10;0.80;;;;;;;7.28;78.94;98659.53;343601;28;1301;-70
2022/11/21 00:15:29;;;;;;;1.48;0.80;;;;;;;7.31;78.59;98670.63;343831;28;1401;-70
2022/11/21 00:15:42;;;;;;;2.20;0.80;;;;;;;7.24;78.74;98658.78;343815;28;1336;-70
2022/11/21 00:15:54;;;;;;;2.13;0.80;;;;;;;7.25;78.91;98663.06;343317;28;1691;-70
2022/11/21 00:16:10;;;;;;;2.67;0.73;;;;;;;7.17;79.06;98662.50;343527;28;1808;-69
2022/11/21 00:16:21;;;;;;;2.20;0.65;;;;;;;7.17;79.37;98671.09;343146;28;1266;-69
2022/11/21 00:16:33;;;;;;;1.48;0.70;;;;;;;7.24;78.90;98684.63;343726;28;1026;-70
2022/11/21 00:16:47;;;;;;;1.83;0.80;;;;;;;7.27;78.67;98658.69;343668;28;1031;-70
2022/11/21 00:17:04;;;;;;;1.30;0.70;;;;;;;7.29;78.53;98662.06;343607;28;1035;-70
2022/11/21 00:17:16;;;;;;;1.67;0.70;;;;;;;7.32;78.73;98667.13;343072;28;2210;-70
2022/11/21 00:17:28;;;;;;;2.50;0.80;;;;;;;7.23;78.62;98656.28;342334;28;1206;-70
2022/11/21 00:17:39;;;;;;;2.40;0.80;;;;;;;7.21;78.46;98669.25;342297;28;1050;-70
2022/11/21 00:17:52;;;;;;;2.00;0.63;;;;;;;7.17;78.67;98662.50;343142;28;1230;-70
2022/11/21 00:18:04;;;;;;;3.47;0.80;;;;;;;7.20;79.12;98668.41;343786;28;1237;-70
2022/11/21 00:18:16;;;;;;;4.10;0.90;;;;;;;7.26;78.80;98671.66;343765;28;1331;-70
2022/11/21 00:18:28;;;;;;;3.50;0.80;;;;;;;7.26;78.80;98669.06;343805;28;1034;-70
2022/11/21 00:18:41;;;;;;;1.77;0.65;;;;;;;7.25;78.89;98664.81;343472;28;1225;-70
2022/11/21 00:18:53;;;;;;;1.60;0.65;;;;;;;7.21;78.50;98669.25;342353;28;1079;-70
2022/11/21 00:19:05;;;;;;;1.50;0.60;;;;;;;7.19;78.88;98689.97;342265;28;1270;-70
2022/11/21 00:19:17;;;;;;;1.55;0.63;;;;;;;7.23;78.51;98669.19;342322;28;1387;-70
2022/11/21 00:19:29;;;;;;;1.30;0.70;;;;;;;7.19;78.73;98669.28;343631;28;1177;-69
2022/11/21 00:19:41;;;;;;;1.85;0.65;;;;;;;7.26;78.73;98661.31;342840;28;1701;-70
2022/11/21 00:19:53;;;;;;;2.40;0.70;;;;;;;7.24;78.58;98663.97;341716;28;1812;-70
2022/11/21 00:20:05;;;;;;;1.45;0.70;;;;;;;7.24;78.62;98670.88;343621;28;1774;-70
2022/11/21 00:20:19;;;;;;;1.50;0.70;;;;;;;7.19;78.49;98656.38;343718;28;1332;-70
2022/11/21 00:20:32;;;;;;;1.30;0.70;;;;;;;7.11;78.46;98670.47;343667;28;1103;-70
2022/11/21 00:20:44;;;;;;;1.88;0.77;;;;;;;7.19;78.77;98671.03;343532;28;1023;-70
2022/11/21 00:20:55;;;;;;;1.98;0.77;;;;;;;7.12;79.05;98664.38;343257;28;1881;-70
2022/11/21 00:21:15;;;;;;;1.45;0.68;;;;;;;7.10;78.93;98667.03;342667;28;1007;-70
2022/11/21 00:21:27;;;;;;;2.15;0.70;;;;;;;7.11;79.25;98660.97;342418;28;1218;-70
2022/11/21 00:21:39;;;;;;;2.00;0.70;;;;;;;7.04;79.15;98662.06;343510;28;1004;-70
2022/11/21 00:21:51;;;;;;;1.65;0.68;;;;;;;7.09;79.44;98660.19;343227;28;1489;-70
2022/11/21 00:22:03;;;;;;;1.75;0.70;;;;;;;7.12;79.46;98660.09;343404;28;2044;-70
2022/11/21 00:22:15;;;;;;;1.90;0.73;;;;;;;7.17;79.02;98650.41;343460;28;1106;-70
2022/11/21 00:22:27;;;;;;;2.33;0.80;;;;;;;7.19;79.10;98666.72;342212;28;1095;-70
2022/11/21 00:22:39;;;;;;;2.13;0.65;;;;;;;7.16;79.05;98655.63;342256;28;1209;-70
2022/11/21 00:22:51;;;;;;;2.35;0.60;;;;;;;7.11;79.32;98648.03;342044;28;1219;-70
2022/11/21 00:23:03;;;;;;;2.10;0.57;;;;;;;7.11;79.33;98655.78;342298;28;1098;-69
2022/11/21 00:23:15;;;;;;;2.13;0.80;;;;;;;7.00;79.50;98651.00;343405;28;1528;-69
2022/11/21 00:23:28;;;;;;;2.17;0.88;;;;;;;6.99;79.06;98674.31;342441;28;1166;-70
2022/11/21 00:23:40;;;;;;;2.22;0.75;;;;;;;6.98;79.34;98664.84;340202;28;5081;-70
2022/11/21 00:23:52;;;;;;;2.20;0.88;;;;;;;6.93;79.62;98674.50;342491;28;5178;-70
2022/11/21 00:24:04;;;;;;;1.98;0.80;;;;;;;6.83;79.71;98657.63;342457;28;1039;-70
2022/11/21 00:24:16;;;;;;;1.00;0.68;;;;;;;6.95;79.63;98657.22;342298;28;5656;-70
2022/11/21 00:24:28;;;;;;;2.15;0.70;;;;;;;6.86;79.86;98662.69;342643;28;1047;-70
2022/11/21 00:24:40;;;;;;;2.72;0.80;;;;;;;6.81;80.08;98662.84;342256;28;1065;-70
2022/11/21 00:24:52;;;;;;;2.15;0.70;;;;;;;6.80;80.08;98664.59;341711;28;2029;-70
2022/11/21 00:25:06;;;;;;;1.58;0.60;;;;;;;6.87;80.46;98664.38;342758;28;1432;-70
2022/11/21 00:25:17;;;;;;;1.98;0.70;;;;;;;6.98;80.00;98663.13;342633;28;1291;-70
2022/11/21 00:25:30;;;;;;;1.70;0.75;;;;;;;6.95;79.79;98658.06;343512;28;1275;-70
2022/11/21 00:25:42;;;;;;;1.55;0.70;;;;;;;6.99;79.83;98656.22;343523;28;1187;-70
2022/11/21 00:25:54;;;;;;;1.50;0.70;;;;;;;6.92;79.97;98665.06;343430;28;1055;-70
2022/11/21 00:26:07;;;;;;;1.20;0.68;;;;;;;6.86;80.25;98663.53;343649;28;1165;-70
2022/11/21 00:26:19;;;;;;;0.93;0.60;;;;;;;6.75;80.36;98656.13;343583;28;1267;-70
2022/11/21 00:26:31;;;;;;;1.60;0.70;;;;;;;6.78;80.30;98660.34;343440;28;1078;-70
2022/11/21 00:26:43;;;;;;;2.00;0.75;;;;;;;6.82;80.06;98658.50;343249;28;1294;-70
2022/11/21 00:26:55;;;;;;;2.35;0.80;;;;;;;6.79;80.07;98662.88;343471;28;1210;-70
2022/11/21 00:27:07;;;;;;;2.63;0.77;;;;;;;6.77;80.12;98649.19;343242;28;1273;-70
2022/11/21 00:27:19;;;;;;;2.38;0.70;;;;;;;6.79;80.36;98652.56;343422;28;1359;-70
2022/11/21 00:27:30;;;;;;;2.20;0.70;;;;;;;6.78;80.28;98661.22;343382;28;1031;-70
2022/11/21 00:27:43;;;;;;;1.17;0.63;;;;;;;6.84;80.95;98643.81;342153;28;1051;-70
2022/11/21 00:27:55;;;;;;;1.30;0.70;;;;;;;6.91;80.04;98659.06;342186;28;1143;-70
2022/11/21 00:28:06;;;;;;;1.30;0.70;;;;;;;6.95;80.18;98652.06;342438;28;1166;-70
2022/11/21 00:28:18;;;;;;;1.35;0.73;;;;;;;6.90;80.13;98662.56;342172;28;1083;-70
2022/11/21 00:28:30;;;;;;;2.00;0.80;;;;;;;6.85;79.90;98656.69;342245;28;1293;-70
2022/11/21 00:28:43;;;;;;;2.10;0.80;;;;;;;6.87;80.23;98648.88;342983;28;1293;-70
2022/11/21 00:28:55;;;;;;;3.05;0.80;;;;;;;6.90;80.28;98659.09;343321;28;1117;-70
2022/11/21 00:29:07;;;;;;;3.78;0.90;;;;;;;6.87;79.88;98661.81;343650;28;1066;-70
2022/11/21 00:29:19;;;;;;;3.15;0.90;;;;;;;6.87;79.92;98654.06;343767;28;1045;-70
2022/11/21 00:29:31;;;;;;;2.50;0.70;;;;;;;6.98;79.20;98642.47;344895;28;1062;-70
2022/11/21 00:29:43;;;;;;;1.38;0.70;;;;;;;6.98;79.50;98647.63;345152;28;1286;-69
2022/11/21 00:29:55;;;;;;;0.93;0.60;;;;;;;7.01;79.41;98664.75;345105;28;1317;-69
2022/11/21 00:30:09;;;;;;;1.02;0.65;;;;;;;6.97;78.81;98629.59;344999;28;1272;-69
2022/11/21 00:30:21;;;;;;;1.10;0.60;;;;;;;6.96;79.53;98667.50;343814;28;1166;-70
2022/11/21 00:30:33;;;;;;;1.60;0.45;;;;;;;6.94;78.84;98655.50;343233;28;1932;-70
2022/11/21 00:30:45;;;;;;;1.40;0.40;;;;;;;6.92;78.80;98650.44;342453;28;2094;-70
2022/11/21 00:30:57;;;;;;;0.70;0.40;;;;;;;6.86;79.30;98637.72;343819;28;1691;-70
2022/11/21 00:31:17;;;;;;;1.10;0.52;;;;;;;6.86;79.50;98642.00;344872;28;1072;-70
2022/11/21 00:31:30;;;;;;;1.25;0.60;;;;;;;6.89;79.56;98652.25;343722;28;1754;-70
2022/11/21 00:31:42;;;;;;;1.00;0.50;;;;;;;6.96;79.06;98653.72;344836;28;1292;-70
2022/11/21 00:31:54;;;;;;;0.75;0.50;;;;;;;6.98;78.88;98633.84;344327;28;1249;-69
2022/11/21 00:32:06;;;;;;;0.93;0.50;;;;;;;6.98;78.86;98645.03;343415;28;1348;-69
2022/11/21 00:32:17;;;;;;;0.85;0.40;;;;;;;6.97;79.28;98645.09;343378;28;1340;-70
2022/11/21 00:32:30;;;;;;;0.65;0.40;;;;;;;6.96;78.94;98643.38;343305;28;1139;-70
2022/11/21 00:32:42;;;;;;;0.95;0.55;;;;;;;6.94;79.18;98646.06;343650;28;1060;-70
2022/11/21 00:32:54;;;;;;;1.23;0.63;;;;;;;6.92;79.71;98644.38;342378;28;1902;-70
2022/11/21 00:33:06;;;;;;;1.30;0.70;;;;;;;6.86;79.60;98642.00;342411;28;1061;-70
2022/11/21 00:33:18;;;;;;;2.20;0.70;;;;;;;6.85;80.31;98650.69;342483;28;1303;-70
2022/11/21 00:33:31;;;;;;;2.17;0.70;;;;;;;6.73;80.88;98652.75;343582;28;1226;-69
2022/11/21 00:33:43;;;;;;;2.13;0.68;;;;;;;6.75;80.89;98632.88;344923;28;1071;-69
2022/11/21 00:33:55;;;;;;;1.55;0.60;;;;;;;6.68;80.89;98644.34;345308;28;1025;-69
2022/11/21 00:34:08;;;;;;;1.15;0.50;;;;;;;6.59;81.08;98644.63;345140;28;1034;-70
2022/11/21 00:34:20;;;;;;;1.40;0.60;;;;;;;6.54;81.75;98643.91;344815;28;1027;-70
2022/11/21 00:34:32;;;;;;;0.80;0.60;;;;;;;6.52;81.87;98649.16;344815;28;1038;-70
2022/11/21 00:34:44;;;;;;;0.93;0.55;;;;;;;6.56;82.44;98642.13;344719;28;1276;-70
2022/11/21 00:34:56;;;;;;;1.60;0.55;;;;;;;6.57;82.28;98641.25;342935;28;1792;-70
2022/11/21 00:35:08;;;;;;;1.70;0.60;;;;;;;6.51;82.66;98646.63;343531;28;1229;-70
2022/11/21 00:35:20;;;;;;;1.08;0.60;;;;;;;6.49;82.52;98601.94;343325;28;1274;-70
2022/11/21 00:35:32;;;;;;;0.80;0.50;;;;;;;6.55;82.33;98633.53;343447;28;1037;-70
2022/11/21 00:35:44;;;;;;;0.75;0.47;;;;;;;6.65;82.12;98631.50;341074;28;2976;-70
2022/11/21 00:35:56;;;;;;;0.77;0.52;;;;;;;6.69;82.34;98635.69;343215;28;1627;-70
2022/11/21 00:36:08;;;;;;;1.23;0.60;;;;;;;6.69;81.98;98650.34;343279;28;1800;-70
2022/11/21 00:36:20;;;;;;;1.40;0.60;;;;;;;6.62;82.31;98638.50;343017;28;2569;-70
2022/11/21 00:36:32;;;;;;;1.17;0.57;;;;;;;6.55;81.96;98637.88;342686;28;1273;-70
2022/11/21 00:36:44;;;;;;;1.23;0.50;;;;;;;6.57;82.17;98625.75;342217;28;1896;-70
2022/11/21 00:36:56;;;;;;;1.92;0.50;;;;;;;6.59;82.32;98629.13;342889;28;1600;-70
2022/11/21 00:37:08;;;;;;;2.67;0.68;;;;;;;6.62;81.94;98644.53;342194;28;1522;-70
2022/11/21 00:37:20;;;;;;;2.05;0.77;;;;;;;6.58;82.26;98637.78;343392;28;1763;-70
2022/11/21 00:37:32;;;;;;;1.25;0.70;;;;;;;6.54;82.42;98631.88;343578;28;1101;-70
2022/11/21 00:37:46;;;;;;;1.67;0.80;;;;;;;6.54;82.17;98625.84;344095;28;1757;-70
2022/11/21 00:37:58;;;;;;;1.65;0.60;;;;;;;6.51;82.75;98626.78;345086;28;1149;-70
2022/11/21 00:38:10;;;;;;;1.15;0.55;;;;;;;6.56;82.20;98634.38;344832;28;1288;-70
2022/11/21 00:38:23;;;;;;;1.20;0.50;;;;;;;6.46;82.43;98631.28;343828;28;1211;-69
2022/11/21 00:38:35;;;;;;;1.50;0.60;;;;;;;6.46;82.71;98627.84;343652;28;1095;-69
2022/11/21 00:38:47;;;;;;;1.63;0.68;;;;;;;6.48;83.19;98636.38;343702;28;1062;-70
2022/11/21 00:38:59;;;;;;;1.52;0.57;;;;;;;6.44;82.43;98634.78;343450;28;1242;-70
2022/11/21 00:39:11;;;;;;;2.55;0.50;;;;;;;6.37;83.30;98626.41;343782;28;1063;-70
2022/11/21 00:39:23;;;;;;;2.42;0.50;;;;;;;6.37;83.46;98632.41;343662;28;1228;-70
2022/11/21 00:39:35;;;;;;;1.75;0.43;;;;;;;6.41;83.61;98635.72;343621;28;1248;-70
2022/11/21 00:39:47;;;;;;;1.05;0.50;;;;;;;6.36;83.18;98628.16;343543;28;1039;-70
2022/11/21 00:39:59;;;;;;;1.08;0.60;;;;;;;6.37;83.49;98634.97;343781;28;1200;-70
2022/11/21 00:40:11;;;;;;;1.75;0.65;;;;;;;6.35;83.51;98630.78;342516;28;1869;-70
2022/11/21 00:40:23;;;;;;;1.77;0.63;;;;;;;6.37;83.03;98628.97;343273;28;1219;-70
2022/11/21 00:40:35;;;;;;;2.15;0.80;;;;;;;6.42;83.62;98631.41;344559;28;1088;-70
2022/11/21 00:40:47;;;;;;;1.33;0.70;;;;;;;6.43;83.45;98633.09;345159;28;1050;-70
2022/11/21 00:40:59;;;;;;;2.10;0.70;;;;;;;6.44;83.31;98635.66;345131;28;1038;-70
2022/11/21 00:41:11;;;;;;;3.00;0.80;;;;;;;6.56;82.78;98624.06;345111;28;1239;-70
2022/11/21 00:41:23;;;;;;;2.50;0.68;;;;;;;6.49;83.00;98618.25;343950;28;1348;-70
2022/11/21 00:41:35;;;;;;;1.20;0.52;;;;;;;6.58;82.84;98620.56;343661;28;1018;-70
2022/11/21 00:41:47;;;;;;;1.27;0.60;;;;;;;6.63;82.66;98622.97;343287;28;1306;-70
2022/11/21 00:41:59;;;;;;;1.17;0.70;;;;;;;6.69;82.08;98609.84;343544;28;1481;-70
2022/11/21 00:42:11;;;;;;;2.10;0.70;;;;;;;6.68;82.35;98628.84;344619;28;1678;-70
2022/11/21 00:42:23;;;;;;;1.90;0.65;;;;;;;6.63;82.47;98627.31;343683;28;1272;-70
2022/11/21 00:42:35;;;;;;;1.13;0.52;;;;;;;6.64;81.71;98629.84;344205;28;1780;-70
2022/11/21 00:42:46;;;;;;;1.38;0.68;;;;;;;6.67;81.80;98627.13;344924;28;1305;-70
2022/11/21 00:42:58;;;;;;;1.67;0.73;;;;;;;6.61;81.97;98622.19;344798;28;1092;-70
2022/11/21 00:43:10;;;;;;;2.20;0.70;;;;;;;6.57;81.76;98623.19;344800;28;1074;-70
2022/11/21 00:43:22;;;;;;;1.70;0.60;;;;;;;6.53;82.07;98626.75;343760;28;1291;-70
2022/11/21 00:43:34;;;;;;;1.30;0.50;;;;;;;6.52;82.15;98612.13;343511;28;1071;-70
2022/11/21 00:43:46;;;;;;;1.02;0.52;;;;;;;6.54;82.11;98615.50;343532;28;1114;-70
2022/11/21 00:43:58;;;;;;;2.00;0.60;;;;;;;6.52;82.10;98623.34;343817;28;1515;-70
2022/11/21 00:44:10;;;;;;;2.22;0.60;;;;;;;6.52;82.46;98612.13;343536;28;1334;-70
2022/11/21 00:44:22;;;;;;;2.08;0.60;;;;;;;6.57;82.27;98605.09;343427;28;1236;-70
2022/11/21 00:44:34;;;;;;;2.38;0.57;;;;;;;6.54;81.94;98623.25;343008;28;1353;-70
2022/11/21 00:44:46;;;;;;;1.90;0.60;;;;;;;6.57;82.36;98625.75;343216;28;1196;-70
2022/11/21 00:44:58;;;;;;;2.55;0.60;;;;;;;6.51;82.57;98626.78;343392;28;1166;-70
2022/11/21 00:45:10;;;;;;;3.95;0.73;;;;;;;6.51;82.25;98624.22;342202;28;1337;-70
2022/11/21 00:45:22;;;;;;;3.28;0.73;;;;;;;6.55;82.48;98614.63;342079;28;1019;-70
2022/11/21 00:45:36;;;;;;;2.20;0.70;;;;;;;6.64;82.12;98616.06;341991;28;1267;-70
2022/11/21 00:45:48;;;;;;;2.10;0.90;;;;;;;6.63;81.78;98617.81;342269;28;1105;-70
2022/11/21 00:46:01;;;;;;;2.67;0.90;;;;;;;6.68;81.44;98610.75;341735;28;1556;-70
2022/11/21 00:46:13;;;;;;;2.75;0.70;;;;;;;6.76;81.45;98613.06;343140;28;1545;-70
2022/11/21 00:46:25;;;;;;;1.58;0.63;;;;;;;6.82;81.19;98609.44;343488;28;1287;-70
2022/11/21 00:46:37;;;;;;;2.55;0.73;;;;;;;6.78;81.40;98616.44;343045;28;1179;-70
2022/11/21 00:46:49;;;;;;;1.95;0.70;;;;;;;6.82;80.79;98609.44;343340;28;1175;-69
2022/11/21 00:47:00;;;;;;;2.22;0.70;;;;;;;6.79;80.77;98616.41;343710;28;1086;-69
2022/11/21 00:47:12;;;;;;;1.92;0.65;;;;;;;6.82;80.63;98615.44;343508;28;1040;-70
2022/11/21 00:47:24;;;;;;;2.55;0.60;;;;;;;6.78;80.55;98600.94;343676;28;1246;-70
2022/11/21 00:47:36;;;;;;;2.30;0.73;;;;;;;6.84;80.43;98608.50;343570;28;1043;-70
2022/11/21 00:47:48;;;;;;;2.13;0.70;;;;;;;6.87;80.55;98602.38;343547;28;1028;-70
2022/11/21 00:48:00;;;;;;;2.67;0.70;;;;;;;6.87;80.64;98610.13;343413;28;1505;-69
2022/11/21 00:48:12;;;;;;;2.28;0.70;;;;;;;6.83;80.33;98616.31;343144;28;1181;-69
2022/11/21 00:48:24;;;;;;;2.22;0.70;;;;;;;6.83;80.86;98616.31;343214;28;1416;-70
2022/11/21 00:48:36;;;;;;;1.20;0.70;;;;;;;6.74;81.08;98610.56;343436;28;1252;-70
2022/11/21 00:48:48;;;;;;;1.50;0.60;;;;;;;6.71;80.81;98607.22;343321;28;1106;-70
2022/11/21 00:49:00;;;;;;;2.28;0.70;;;;;;;6.73;80.64;98611.44;343205;28;1092;-70
2022/11/21 00:49:12;;;;;;;2.45;0.75;;;;;;;6.75;81.07;98604.47;343485;28;1071;-70
2022/11/21 00:49:24;;;;;;;3.03;1.50;;;;;;;6.75;80.90;98608.81;342062;28;1102;-70
2022/11/21 00:49:35;;;;;;;3.03;1.60;;;;;;;6.68;80.90;98608.19;342419;28;1131;-70
2022/11/21 00:49:47;;;;;;;4.05;1.20;;;;;;;6.68;81.08;98608.19;342087;28;1104;-70
2022/11/21 00:49:59;;;;;;;3.58;0.90;;;;;;;6.64;81.52;98604.03;342032;28;1281;-70
2022/11/21 00:50:11;;;;;;;1.58;0.82;;;;;;;6.63;81.52;98604.91;343413;28;1115;-70
2022/11/21 00:50:23;;;;;;;1.52;1.00;;;;;;;6.67;81.77;98606.47;343467;28;1288;-70
2022/11/21 00:50:35;;;;;;;2.33;1.02;;;;;;;6.65;81.49;98607.44;343391;28;1065;-70
2022/11/21 00:50:48;;;;;;;2.17;0.95;;;;;;;6.66;81.39;98601.34;341235;28;1824;-70
2022/11/21 00:51:00;;;;;;;1.00;0.90;;;;;;;6.64;81.32;98611.75;342466;28;1120;-70
2022/11/21 00:51:12;;;;;;;1.50;0.80;;;;;;;6.66;81.75;98603.94;343458;28;1318;-70
2022/11/21 00:51:24;;;;;;;2.03;0.90;;;;;;;6.65;81.14;98618.59;343376;28;1295;-70
2022/11/21 00:51:36;;;;;;;2.17;0.73;;;;;;;6.69;81.50;98615.03;343487;28;1330;-70
2022/11/21 00:51:48;;;;;;;2.63;0.82;;;;;;;6.69;81.42;98615.03;343750;28;1043;-70
2022/11/21 00:52:00;;;;;;;2.97;1.37;;;;;;;6.77;81.58;98607.84;343710;28;1079;-70
2022/11/21 00:52:13;;;;;;;2.75;1.40;;;;;;;6.72;81.43;98609.75;343717;28;1161;-70
2022/11/21 00:52:24;;;;;;;2.03;0.90;;;;;;;6.64;81.17;98606.59;343497;28;1098;-70
2022/11/21 00:52:36;;;;;;;2.03;0.73;;;;;;;6.68;80.99;98597.84;343558;28;1030;-70
2022/11/21 00:52:48;;;;;;;2.70;0.80;;;;;;;6.66;81.07;98602.22;340856;28;3193;-70
2022/11/21 00:53:00;;;;;;;3.13;0.90;;;;;;;6.73;81.04;98611.44;342452;28;3197;-70
2022/11/21 00:53:12;;;;;;;2.35;0.80;;;;;;;6.70;80.86;98605.53;342264;28;1407;-70
2022/11/21 00:53:24;;;;;;;2.10;1.00;;;;;;;6.68;81.09;98618.50;343302;28;2915;-70
2022/11/21 00:53:36;;;;;;;2.92;1.00;;;;;;;6.66;80.97;98599.66;343554;28;1094;-70
2022/11/21 00:53:48;;;;;;;2.58;1.00;;;;;;;6.56;81.01;98605.97;343799;28;1263;-70
2022/11/21 00:54:00;;;;;;;3.53;0.98;;;;;;;6.62;81.42;98607.53;343702;28;1304;-70
2022/11/21 00:54:12;;;;;;;3.20;1.00;;;;;;;6.63;81.55;98607.47;343616;28;1056;-70
2022/11/21 00:54:24;;;;;;;2.60;0.90;;;;;;;6.58;81.92;98604.22;343638;28;1330;-70
2022/11/21 00:54:36;;;;;;;2.38;0.80;;;;;;;6.64;81.42;98616.94;342517;28;1141;-70
2022/11/21 00:54:48;;;;;;;1.83;0.80;;;;;;;6.66;81.34;98602.22;342698;28;3094;-70
2022/11/21 00:55:00;;;;;;;1.90;0.95;;;;;;;6.66;81.46;98604.81;343077;28;1125;-70
2022/11/21 00:55:12;;;;;;;2.88;1.02;;;;;;;6.62;81.20;98605.81;343348;28;1044;-70
2022/11/21 00:55:24;;;;;;;3.10;0.90;;;;;;;6.65;81.70;98604.84;342603;28;1707;-70
2022/11/21 00:55:36;;;;;;;3.63;0.75;;;;;;;6.67;81.45;98603.91;342450;28;1271;-70
2022/11/21 00:55:48;;;;;;;3.00;0.80;;;;;;;6.59;81.53;98605.91;343467;28;1067;-70
2022/11/21 00:56:00;;;;;;;2.45;0.85;;;;;;;6.55;81.69;98593.97;343407;28;1066;-70
2022/11/21 00:56:12;;;;;;;2.17;0.70;;;;;;;6.63;81.50;98607.47;344616;28;1290;-70
2022/11/21 00:56:24;;;;;;;1.92;0.82;;;;;;;6.68;81.71;98600.44;344646;28;1171;-70
2022/11/21 00:56:36;;;;;;;1.70;0.90;;;;;;;6.69;81.63;98602.09;344884;28;1070;-70
2022/11/21 00:56:48;;;;;;;2.78;1.10;;;;;;;6.69;81.45;98596.94;344721;28;1230;-70
2022/11/21 00:57:00;;;;;;;3.13;1.02;;;;;;;6.66;81.44;98599.66;344709;28;1247;-70
2022/11/21 00:57:12;;;;;;;3.97;1.00;;;;;;;6.68;81.28;98603.03;346220;28;1226;-70
2022/11/21 00:57:24;;;;;;;3.55;0.80;;;;;;;6.75;81.42;98607.06;346142;28;1167;-70
2022/11/21 00:57:35;;;;;;;3.92;0.77;;;;;;;6.69;80.79;98599.53;346241;28;1184;-70
2022/11/21 00:57:47;;;;;;;4.13;0.90;;;;;;;6.73;81.32;98595.94;345722;28;1272;-70
2022/11/21 00:57:59;;;;;;;3.92;0.98;;;;;;;6.68;80.92;98602.16;343754;28;1847;-70
2022/11/21 00:58:11;;;;;;;2.45;0.80;;;;;;;6.73;81.23;98605.44;343523;28;1054;-70
2022/11/21 00:58:23;;;;;;;2.92;0.75;;;;;;;6.78;80.72;98594.06;343445;28;1255;-70
2022/11/21 00:58:35;;;;;;;3.10;0.75;;;;;;;6.84;80.53;98597.31;343797;28;1039;-70
2022/11/21 00:58:47;;;;;;;3.72;0.98;;;;;;;6.84;80.71;98597.31;343833;28;2908;-70
2022/11/21 00:58:59;;;;;;;2.28;0.90;;;;;;;6.88;80.20;98604.06;343522;28;1079;-70
2022/11/21 00:59:11;;;;;;;2.22;0.80;;;;;;;6.80;80.42;98600.03;343534;28;1023;-70
2022/11/21 00:59:23;;;;;;;3.50;0.95;;;;;;;6.75;80.71;98599.31;343612;28;1302;-70
2022/11/21 00:59:35;;;;;;;4.43;1.30;;;;;;;6.72;81.12;98608.91;343599;28;1079;-70
2022/11/21 00:59:47;;;;;;;3.47;1.15;;;;;;;6.76;80.77;98603.59;343509;28;1034;-70
2022/11/21 00:59:59;;;;;;;4.18;1.20;;;;;;;6.73;80.66;98600.28;343568;28;1051;-70